Time,TemperatureF,DewpointF,PressureIn,WindDirection,WindDirectionDegrees,WindSpeedMPH,WindSpeedGustMPH,Humidity,HourlyPrecipIn,Conditions,Clouds,dailyrainin,SoftwareType,DateUTC
2013-04-26 00:12:00,56.8,-42.8,29.96,SW,225,0.0,-999.0,1,-99.99,,,0.00,Acu-Link.com,2013-04-26 05:12:00,
2013-04-26 00:27:00,56.1,-43.2,29.96,WNW,292,0.0,-999.0,1,-99.99,,,0.00,Acu-Link.com,2013-04-26 05:27:00,
2013-04-26 00:43:00,55.8,-43.4,29.96,WNW,292,0.0,-999.0,1,-99.99,,,0.00,Acu-Link.com,2013-04-26 05:43:00,
2013-04-26 00:58:00,55.2,-43.8,29.95,NW,315,0.0,-999.0,1,-99.99,,,0.00,Acu-Link.com,2013-04-26 05:58:00,
2013-04-26 01:13:00,55.2,-43.8,29.95,West,270,0.0,-999.0,1,-99.99,,,0.00,Acu-Link.com,2013-04-26 06:13:00,
2013-04-26 01:28:00,54.9,-44.0,29.95,West,270,0.0,-999.0,1,-99.99,,,0.00,Acu-Link.com,2013-04-26 06:28:00,
2013-04-26 01:44:00,54.7,-44.1,29.95,West,270,0.0,-999.0,1,-99.99,,,0.00,Acu-Link.com,2013-04-26 06:44:00,
2013-04-26 01:59:00,54.7,-44.1,29.94,SSE,157,0.0,-999.0,1,-99.99,,,0.00,Acu-Link.com,2013-04-26 06:59:00,
2013-04-26 02:14:00,54.9,-44.0,29.94,SSE,157,0.0,-999.0,1,-99.99,,,0.00,Acu-Link.com,2013-04-26 07:14:00,
2013-04-26 02:30:00,54.7,-44.1,29.94,North,0,0.0,-999.0,1,-99.99,,,0.00,Acu-Link.com,2013-04-26 07:30:00,
2013-04-26 02:45:00,54.3,-44.3,29.93,West,270,0.0,-999.0,1,-99.99,,,0.00,Acu-Link.com,2013-04-26 07:45:00,
2013-04-26 03:00:00,54.7,-44.1,29.93,SW,225,0.0,-999.0,1,-99.99,,,0.00,Acu-Link.com,2013-04-26 08:00:00,
2013-04-26 03:15:00,54.9,-44.0,29.92,SW,225,0.0,-999.0,1,-99.99,,,0.00,Acu-Link.com,2013-04-26 08:15:00,
2013-04-26 03:30:00,54.5,-44.2,29.92,SW,225,0.0,-999.0,1,-99.99,,,0.00,Acu-Link.com,2013-04-26 08:30:00,
2013-04-26 03:45:00,54.9,-44.0,29.92,West,270,0.0,-999.0,1,-99.99,,,0.00,Acu-Link.com,2013-04-26 08:45:00,
2013-04-26 04:01:00,54.1,-44.4,29.91,West,270,0.0,-999.0,1,-99.99,,,0.00,Acu-Link.com,2013-04-26 09:01:00,
2013-04-26 04:16:00,54.3,-44.3,29.90,West,270,0.0,-999.0,1,-99.99,,,0.00,Acu-Link.com,2013-04-26 09:16:00,
2013-04-26 04:31:00,54.0,-44.5,29.91,West,270,0.0,-999.0,1,-99.99,,,0.00,Acu-Link.com,2013-04-26 09:31:00,
2013-04-26 04:46:00,53.8,-44.6,29.91,SW,225,0.0,-999.0,1,-99.99,,,0.00,Acu-Link.com,2013-04-26 09:46:00,
2013-04-26 05:02:00,53.8,-44.6,29.92,SW,225,0.0,-999.0,1,-99.99,,,0.00,Acu-Link.com,2013-04-26 10:02:00,
2013-04-26 05:17:00,54.3,-44.3,29.91,East,90,0.0,-999.0,1,-99.99,,,0.00,Acu-Link.com,2013-04-26 10:17:00,
2013-04-26 05:32:00,54.0,-44.5,29.91,NW,315,0.0,-999.0,1,-99.99,,,0.00,Acu-Link.com,2013-04-26 10:32:00,
2013-04-26 05:48:00,54.9,-44.0,29.92,ENE,67,0.0,-999.0,1,-99.99,,,0.00,Acu-Link.com,2013-04-26 10:48:00,
2013-04-26 06:03:00,54.0,-44.5,29.92,WNW,292,0.0,-999.0,1,-99.99,,,0.00,Acu-Link.com,2013-04-26 11:03:00,
2013-04-26 06:18:00,53.8,-44.6,29.92,NNE,22,0.0,-999.0,1,-99.99,,,0.00,Acu-Link.com,2013-04-26 11:18:00,
2013-04-26 06:34:00,53.8,-44.6,29.93,NNE,22,2.2,-999.0,1,-99.99,,,0.00,Acu-Link.com,2013-04-26 11:34:00,
2013-04-26 06:49:00,54.1,-44.4,29.95,ENE,67,0.0,-999.0,1,-99.99,,,0.00,Acu-Link.com,2013-04-26 11:49:00,
2013-04-26 07:04:00,55.9,-43.3,29.95,NNE,22,0.0,-999.0,1,-99.99,,,0.00,Acu-Link.com,2013-04-26 12:04:00,
2013-04-26 07:19:00,58.6,-41.7,29.95,ENE,67,3.7,-999.0,1,-99.99,,,0.00,Acu-Link.com,2013-04-26 12:19:00,
2013-04-26 07:34:00,58.8,-41.6,29.96,East,90,4.7,-999.0,1,-99.99,,,0.00,Acu-Link.com,2013-04-26 12:34:00,
2013-04-26 07:49:00,59.4,-41.2,29.96,ESE,112,4.7,-999.0,1,-99.99,,,0.00,Acu-Link.com,2013-04-26 12:49:00,
2013-04-26 08:05:00,60.6,-40.5,29.97,ESE,112,6.8,-999.0,1,-99.99,,,0.00,Acu-Link.com,2013-04-26 13:05:00,
2013-04-26 08:20:00,61.9,-39.7,29.96,East,90,9.9,-999.0,1,-99.99,,,0.00,Acu-Link.com,2013-04-26 13:20:00,
2013-04-26 08:35:00,62.4,-39.4,29.96,ESE,112,10.4,-999.0,1,-99.99,,,0.00,Acu-Link.com,2013-04-26 13:35:00,
2013-04-26 08:50:00,63.3,-38.9,29.96,East,90,6.3,-999.0,1,-99.99,,,0.00,Acu-Link.com,2013-04-26 13:50:00,
2013-04-26 09:05:00,64.4,-38.2,29.96,ESE,112,5.8,-999.0,1,-99.99,,,0.00,Acu-Link.com,2013-04-26 14:05:00,
2013-04-26 09:20:00,67.5,-36.3,29.96,ESE,112,7.3,-999.0,1,-99.99,,,0.00,Acu-Link.com,2013-04-26 14:20:00,
2013-04-26 09:35:00,71.1,-34.2,29.96,ESE,112,7.8,-999.0,1,-99.99,,,0.00,Acu-Link.com,2013-04-26 14:35:00,
2013-04-26 09:51:00,72.9,-33.1,29.96,ESE,112,7.3,-999.0,1,-99.99,,,0.00,Acu-Link.com,2013-04-26 14:51:00,
2013-04-26 10:06:00,74.1,-32.4,29.95,ESE,112,9.4,-999.0,1,-99.99,,,0.00,Acu-Link.com,2013-04-26 15:06:00,
2013-04-26 10:21:00,74.8,-31.9,29.95,SSE,157,8.3,-999.0,1,-99.99,,,0.00,Acu-Link.com,2013-04-26 15:21:00,
2013-04-26 10:36:00,76.1,-31.2,29.95,ESE,112,7.3,-999.0,1,-99.99,,,0.00,Acu-Link.com,2013-04-26 15:36:00,
2013-04-26 10:52:00,78.3,-29.9,29.95,SE,135,4.2,-999.0,1,-99.99,,,0.00,Acu-Link.com,2013-04-26 15:52:00,
2013-04-26 11:07:00,77.9,-30.1,29.94,ENE,67,6.3,-999.0,1,-99.99,,,0.00,Acu-Link.com,2013-04-26 16:07:00,
2013-04-26 11:22:00,79.7,-29.0,29.95,SE,135,2.7,-999.0,1,-99.99,,,0.00,Acu-Link.com,2013-04-26 16:22:00,
2013-04-26 11:37:00,80.8,-28.4,29.95,ESE,112,4.2,-999.0,1,-99.99,,,0.00,Acu-Link.com,2013-04-26 16:37:00,
2013-04-26 11:52:00,82.0,-27.7,29.94,SSE,157,5.3,-999.0,1,-99.99,,,0.00,Acu-Link.com,2013-04-26 16:52:00,
2013-04-26 12:08:00,82.2,-27.5,29.94,SE,135,3.7,-999.0,1,-99.99,,,0.00,Acu-Link.com,2013-04-26 17:08:00,
2013-04-26 12:23:00,82.8,-27.2,29.93,ESE,112,6.3,-999.0,1,-99.99,,,0.00,Acu-Link.com,2013-04-26 17:23:00,
2013-04-26 12:38:00,82.9,-27.1,29.93,SSE,157,7.3,-999.0,1,-99.99,,,0.00,Acu-Link.com,2013-04-26 17:38:00,
2013-04-26 12:53:00,84.6,-26.1,29.92,South,180,2.7,-999.0,1,-99.99,,,0.00,Acu-Link.com,2013-04-26 17:53:00,
2013-04-26 13:08:00,83.8,-26.6,29.92,SSW,202,2.7,-999.0,1,-99.99,,,0.00,Acu-Link.com,2013-04-26 18:08:00,
2013-04-26 13:24:00,81.3,-28.1,29.91,SW,225,4.2,-999.0,1,-99.99,,,0.00,Acu-Link.com,2013-04-26 18:24:00,
2013-04-26 13:39:00,80.2,-28.7,29.91,SSW,202,6.3,-999.0,1,-99.99,,,0.00,Acu-Link.com,2013-04-26 18:39:00,
2013-04-26 13:54:00,81.0,-28.2,29.91,SW,225,3.7,-999.0,1,-99.99,,,0.00,Acu-Link.com,2013-04-26 18:54:00,
2013-04-26 14:10:00,79.9,-28.9,29.89,South,180,4.7,-999.0,1,-99.99,,,0.00,Acu-Link.com,2013-04-26 19:10:00,
2013-04-26 14:25:00,78.8,-29.6,29.89,SW,225,7.3,-999.0,1,-99.99,,,0.00,Acu-Link.com,2013-04-26 19:25:00,
2013-04-26 14:40:00,77.5,-30.3,29.89,SW,225,5.8,-999.0,1,-99.99,,,0.00,Acu-Link.com,2013-04-26 19:40:00,
2013-04-26 14:55:00,78.8,-29.6,29.88,SSW,202,3.7,-999.0,1,-99.99,,,0.00,Acu-Link.com,2013-04-26 19:55:00,
2013-04-26 15:10:00,81.3,-28.1,29.88,South,180,4.2,-999.0,1,-99.99,,,0.00,Acu-Link.com,2013-04-26 20:10:00,
2013-04-26 15:26:00,83.1,-27.0,29.87,ESE,112,5.3,-999.0,1,-99.99,,,0.00,Acu-Link.com,2013-04-26 20:26:00,
2013-04-26 15:41:00,81.5,-27.9,29.86,SSE,157,4.7,-999.0,1,-99.99,,,0.00,Acu-Link.com,2013-04-26 20:41:00,
2013-04-26 15:56:00,81.0,-28.2,29.86,South,180,6.3,-999.0,1,-99.99,,,0.00,Acu-Link.com,2013-04-26 20:56:00,
2013-04-26 16:11:00,81.5,-27.9,29.85,SSE,157,3.2,-999.0,1,-99.99,,,0.00,Acu-Link.com,2013-04-26 21:11:00,
2013-04-26 16:26:00,80.6,-28.5,29.85,SSE,157,2.7,-999.0,1,-99.99,,,0.00,Acu-Link.com,2013-04-26 21:26:00,
2013-04-26 16:41:00,80.4,-28.6,29.84,South,180,1.7,-999.0,1,-99.99,,,0.00,Acu-Link.com,2013-04-26 21:41:00,
2013-04-26 16:57:00,79.2,-29.3,29.84,SSW,202,1.1,-999.0,1,-99.99,,,0.00,Acu-Link.com,2013-04-26 21:57:00,
2013-04-26 17:12:00,78.4,-29.8,29.84,SSE,157,0.0,-999.0,1,-99.99,,,0.00,Acu-Link.com,2013-04-26 22:12:00,
2013-04-26 17:27:00,78.1,-30.0,29.84,ENE,67,0.0,-999.0,1,-99.99,,,0.00,Acu-Link.com,2013-04-26 22:27:00,
2013-04-26 17:43:00,78.3,-29.9,29.84,SSW,202,2.7,-999.0,1,-99.99,,,0.00,Acu-Link.com,2013-04-26 22:43:00,
2013-04-26 17:58:00,77.5,-30.3,29.84,SE,135,2.7,-999.0,1,-99.99,,,0.00,Acu-Link.com,2013-04-26 22:58:00,
2013-04-26 18:13:00,76.1,-31.2,29.84,SE,135,4.7,-999.0,1,-99.99,,,0.00,Acu-Link.com,2013-04-26 23:13:00,
2013-04-26 18:28:00,75.9,-31.3,29.84,SSE,157,1.1,-999.0,1,-99.99,,,0.00,Acu-Link.com,2013-04-26 23:28:00,
2013-04-26 18:44:00,75.9,-31.3,29.84,SE,135,3.2,-999.0,1,-99.99,,,0.00,Acu-Link.com,2013-04-26 23:44:00,
2013-04-26 19:14:00,74.3,-32.2,29.83,ESE,112,2.2,-999.0,1,-99.99,,,0.00,Acu-Link.com,2013-04-27 00:14:00,
2013-04-26 19:29:00,73.8,-32.5,29.83,South,180,0.0,-999.0,1,-99.99,,,0.00,Acu-Link.com,2013-04-27 00:29:00,
2013-04-26 19:45:00,73.2,-32.9,29.83,South,180,1.1,-999.0,1,-99.99,,,0.00,Acu-Link.com,2013-04-27 00:45:00,
2013-04-26 20:00:00,73.0,-33.0,29.84,SW,225,0.0,-999.0,1,-99.99,,,0.00,Acu-Link.com,2013-04-27 01:00:00,
2013-04-26 20:15:00,72.1,-33.6,29.85,SW,225,0.0,-999.0,1,-99.99,,,0.00,Acu-Link.com,2013-04-27 01:15:00,
2013-04-26 20:31:00,70.9,-34.3,29.85,West,270,0.0,-999.0,1,-99.99,,,0.00,Acu-Link.com,2013-04-27 01:31:00,
2013-04-26 20:46:00,70.3,-34.6,29.85,SW,225,0.0,-999.0,1,-99.99,,,0.00,Acu-Link.com,2013-04-27 01:46:00,
2013-04-26 21:01:00,70.0,-34.8,29.85,East,90,2.2,-999.0,1,-99.99,,,0.00,Acu-Link.com,2013-04-27 02:01:00,
2013-04-26 21:17:00,70.3,-34.6,29.86,WSW,247,0.0,-999.0,1,-99.99,,,0.00,Acu-Link.com,2013-04-27 02:17:00,
2013-04-26 21:32:00,71.1,-34.2,29.86,SW,225,0.0,-999.0,1,-99.99,,,0.00,Acu-Link.com,2013-04-27 02:32:00,
2013-04-26 21:47:00,70.3,-34.6,29.86,SE,135,0.0,-999.0,1,-99.99,,,0.00,Acu-Link.com,2013-04-27 02:47:00,
2013-04-26 22:02:00,71.2,-34.1,29.86,SE,135,0.0,-999.0,1,-99.99,,,0.00,Acu-Link.com,2013-04-27 03:02:00,
2013-04-26 22:18:00,70.5,-34.5,29.86,East,90,0.0,-999.0,1,-99.99,,,0.00,Acu-Link.com,2013-04-27 03:18:00,
2013-04-26 22:33:00,70.2,-34.7,29.87,East,90,2.2,-999.0,1,-99.99,,,0.00,Acu-Link.com,2013-04-27 03:33:00,
2013-04-26 22:48:00,70.0,-34.8,29.86,SSE,157,0.0,-999.0,1,-99.99,,,0.00,Acu-Link.com,2013-04-27 03:48:00,
2013-04-26 23:04:00,70.5,-34.5,29.84,East,90,4.2,-999.0,1,-99.99,,,0.00,Acu-Link.com,2013-04-27 04:04:00,
2013-04-26 23:19:00,70.2,-34.7,29.84,SSE,157,3.2,-999.0,1,-99.99,,,0.00,Acu-Link.com,2013-04-27 04:19:00,
2013-04-26 23:34:00,70.2,-34.7,29.84,East,90,1.7,-999.0,1,-99.99,,,0.00,Acu-Link.com,2013-04-27 04:34:00,
2013-04-26 23:50:00,70.0,-34.8,29.83,SE,135,2.2,-999.0,1,-99.99,,,0.00,Acu-Link.com,2013-04-27 04:50:00,